sensor_id;sensor_type;location;lat;lon;timestamp;temperature;humidity
39847;DHT22;25517;52.422;10.782;2024-03-02T00:00:37;8.80;99.90
39847;DHT22;25517;52.422;10.782;2024-03-02T00:03:03;8.70;99.90
39847;DHT22;25517;52.422;10.782;2024-03-02T00:05:28;8.70;99.90
39847;DHT22;25517;52.422;10.782;2024-03-02T00:07:58;8.70;99.90
39847;DHT22;25517;52.422;10.782;2024-03-02T00:10:39;8.70;99.90
39847;DHT22;25517;52.422;10.782;2024-03-02T00:13:09;8.70;99.90
39847;DHT22;25517;52.422;10.782;2024-03-02T00:15:47;8.70;99.90
39847;DHT22;25517;52.422;10.782;2024-03-02T00:18:15;8.70;99.90
39847;DHT22;25517;52.422;10.782;2024-03-02T00:20:41;8.70;99.90
39847;DHT22;25517;52.422;10.782;2024-03-02T00:23:09;8.70;99.90
39847;DHT22;25517;52.422;10.782;2024-03-02T00:25:41;8.70;99.90
39847;DHT22;25517;52.422;10.782;2024-03-02T00:28:20;8.70;99.90
39847;DHT22;25517;52.422;10.782;2024-03-02T00:31:12;8.70;99.90
39847;DHT22;25517;52.422;10.782;2024-03-02T00:33:45;8.60;99.90
39847;DHT22;25517;52.422;10.782;2024-03-02T00:36:16;8.60;99.90
39847;DHT22;25517;52.422;10.782;2024-03-02T00:38:46;8.60;99.90
39847;DHT22;25517;52.422;10.782;2024-03-02T00:41:29;8.60;99.90
39847;DHT22;25517;52.422;10.782;2024-03-02T00:44:05;8.70;99.90
39847;DHT22;25517;52.422;10.782;2024-03-02T00:46:36;8.70;99.90
39847;DHT22;25517;52.422;10.782;2024-03-02T00:49:03;8.70;99.90
39847;DHT22;25517;52.422;10.782;2024-03-02T00:51:31;8.70;99.90
39847;DHT22;25517;52.422;10.782;2024-03-02T00:54:03;8.70;99.90
39847;DHT22;25517;52.422;10.782;2024-03-02T00:56:29;8.70;99.90
39847;DHT22;25517;52.422;10.782;2024-03-02T00:58:55;8.60;99.90
39847;DHT22;25517;52.422;10.782;2024-03-02T01:01:21;8.60;99.90
39847;DHT22;25517;52.422;10.782;2024-03-02T01:03:48;8.70;99.90
39847;DHT22;25517;52.422;10.782;2024-03-02T01:06:14;8.60;99.90
39847;DHT22;25517;52.422;10.782;2024-03-02T01:08:40;8.60;99.90
39847;DHT22;25517;52.422;10.782;2024-03-02T01:11:06;8.50;99.90
39847;DHT22;25517;52.422;10.782;2024-03-02T01:13:31;8.50;99.90
39847;DHT22;25517;52.422;10.782;2024-03-02T01:15:57;8.50;99.90
39847;DHT22;25517;52.422;10.782;2024-03-02T01:18:24;8.50;99.90
39847;DHT22;25517;52.422;10.782;2024-03-02T01:20:50;8.40;99.90
39847;DHT22;25517;52.422;10.782;2024-03-02T01:23:20;8.40;99.90
39847;DHT22;25517;52.422;10.782;2024-03-02T01:25:49;8.40;99.90
39847;DHT22;25517;52.422;10.782;2024-03-02T01:28:15;8.30;99.90
39847;DHT22;25517;52.422;10.782;2024-03-02T01:30:41;8.30;99.90
39847;DHT22;25517;52.422;10.782;2024-03-02T01:33:07;8.20;99.90
39847;DHT22;25517;52.422;10.782;2024-03-02T01:35:32;8.10;99.90
39847;DHT22;25517;52.422;10.782;2024-03-02T01:37:58;8.20;99.90
39847;DHT22;25517;52.422;10.782;2024-03-02T01:40:24;8.10;99.90
39847;DHT22;25517;52.422;10.782;2024-03-02T01:42:52;8.10;99.90
39847;DHT22;25517;52.422;10.782;2024-03-02T01:45:19;8.10;99.90
39847;DHT22;25517;52.422;10.782;2024-03-02T01:47:44;8.10;99.90
39847;DHT22;25517;52.422;10.782;2024-03-02T01:50:11;8.10;99.90
39847;DHT22;25517;52.422;10.782;2024-03-02T01:52:37;8.10;99.90
39847;DHT22;25517;52.422;10.782;2024-03-02T01:55:03;8.10;99.90
39847;DHT22;25517;52.422;10.782;2024-03-02T01:57:29;8.10;99.90
39847;DHT22;25517;52.422;10.782;2024-03-02T01:59:55;8.10;99.90
39847;DHT22;25517;52.422;10.782;2024-03-02T02:02:21;8.10;99.90
39847;DHT22;25517;52.422;10.782;2024-03-02T02:04:46;8.00;99.90
39847;DHT22;25517;52.422;10.782;2024-03-02T02:07:12;8.00;99.90
39847;DHT22;25517;52.422;10.782;2024-03-02T02:09:42;8.00;99.90
39847;DHT22;25517;52.422;10.782;2024-03-02T02:12:09;8.00;99.90
39847;DHT22;25517;52.422;10.782;2024-03-02T02:14:35;8.00;99.90
39847;DHT22;25517;52.422;10.782;2024-03-02T02:17:00;8.00;99.90
39847;DHT22;25517;52.422;10.782;2024-03-02T02:19:26;8.00;99.90
39847;DHT22;25517;52.422;10.782;2024-03-02T02:21:51;8.00;99.90
39847;DHT22;25517;52.422;10.782;2024-03-02T02:24:17;8.00;99.90
39847;DHT22;25517;52.422;10.782;2024-03-02T02:26:43;8.00;99.90
39847;DHT22;25517;52.422;10.782;2024-03-02T02:29:08;8.00;99.90
39847;DHT22;25517;52.422;10.782;2024-03-02T02:31:41;8.00;99.90
39847;DHT22;25517;52.422;10.782;2024-03-02T02:34:07;8.00;99.90
39847;DHT22;25517;52.422;10.782;2024-03-02T02:36:33;8.00;99.90
39847;DHT22;25517;52.422;10.782;2024-03-02T02:39:02;8.00;99.90
39847;DHT22;25517;52.422;10.782;2024-03-02T02:41:29;8.00;99.90
39847;DHT22;25517;52.422;10.782;2024-03-02T02:43:55;8.00;99.90
39847;DHT22;25517;52.422;10.782;2024-03-02T02:46:20;8.00;99.90
39847;DHT22;25517;52.422;10.782;2024-03-02T02:48:46;8.00;99.90
39847;DHT22;25517;52.422;10.782;2024-03-02T02:51:12;8.00;99.90
39847;DHT22;25517;52.422;10.782;2024-03-02T02:53:37;8.00;99.90
39847;DHT22;25517;52.422;10.782;2024-03-02T02:56:06;7.90;99.90
39847;DHT22;25517;52.422;10.782;2024-03-02T02:58:31;7.90;99.90
39847;DHT22;25517;52.422;10.782;2024-03-02T03:00:57;7.90;99.90
39847;DHT22;25517;52.422;10.782;2024-03-02T03:03:23;8.00;99.90
39847;DHT22;25517;52.422;10.782;2024-03-02T03:05:48;8.00;99.90
39847;DHT22;25517;52.422;10.782;2024-03-02T03:08:14;7.90;99.90
39847;DHT22;25517;52.422;10.782;2024-03-02T03:10:41;7.90;99.90
39847;DHT22;25517;52.422;10.782;2024-03-02T03:13:07;7.90;99.90
39847;DHT22;25517;52.422;10.782;2024-03-02T03:15:34;7.90;99.90
39847;DHT22;25517;52.422;10.782;2024-03-02T03:18:02;7.90;99.90
39847;DHT22;25517;52.422;10.782;2024-03-02T03:20:29;7.90;99.90
39847;DHT22;25517;52.422;10.782;2024-03-02T03:22:55;7.90;99.90
39847;DHT22;25517;52.422;10.782;2024-03-02T03:25:21;7.90;99.90
39847;DHT22;25517;52.422;10.782;2024-03-02T03:27:46;7.90;99.90
39847;DHT22;25517;52.422;10.782;2024-03-02T03:30:12;7.90;99.90
39847;DHT22;25517;52.422;10.782;2024-03-02T03:32:38;7.90;99.90
39847;DHT22;25517;52.422;10.782;2024-03-02T03:35:04;7.90;99.90
39847;DHT22;25517;52.422;10.782;2024-03-02T03:37:30;7.90;99.90
39847;DHT22;25517;52.422;10.782;2024-03-02T03:39:59;7.90;99.90
39847;DHT22;25517;52.422;10.782;2024-03-02T03:42:24;7.90;99.90
39847;DHT22;25517;52.422;10.782;2024-03-02T03:44:49;7.80;99.90
39847;DHT22;25517;52.422;10.782;2024-03-02T03:47:15;7.80;99.90
39847;DHT22;25517;52.422;10.782;2024-03-02T03:49:41;7.80;99.90
39847;DHT22;25517;52.422;10.782;2024-03-02T03:52:06;7.90;99.90
39847;DHT22;25517;52.422;10.782;2024-03-02T03:54:32;7.90;99.90
39847;DHT22;25517;52.422;10.782;2024-03-02T03:56:57;7.90;99.90
39847;DHT22;25517;52.422;10.782;2024-03-02T03:59:23;7.90;99.90
39847;DHT22;25517;52.422;10.782;2024-03-02T04:01:49;7.90;99.90
39847;DHT22;25517;52.422;10.782;2024-03-02T04:04:14;8.00;99.90
39847;DHT22;25517;52.422;10.782;2024-03-02T04:06:40;7.90;99.90
39847;DHT22;25517;52.422;10.782;2024-03-02T04:09:05;7.90;99.90
39847;DHT22;25517;52.422;10.782;2024-03-02T04:11:31;7.90;99.90
39847;DHT22;25517;52.422;10.782;2024-03-02T04:13:57;7.90;99.90
39847;DHT22;25517;52.422;10.782;2024-03-02T04:16:22;7.90;99.90
39847;DHT22;25517;52.422;10.782;2024-03-02T04:18:48;7.90;99.90
39847;DHT22;25517;52.422;10.782;2024-03-02T04:21:13;7.90;99.90
39847;DHT22;25517;52.422;10.782;2024-03-02T04:23:39;7.90;99.90
39847;DHT22;25517;52.422;10.782;2024-03-02T04:26:04;7.90;99.90
39847;DHT22;25517;52.422;10.782;2024-03-02T04:28:30;7.90;99.90
39847;DHT22;25517;52.422;10.782;2024-03-02T04:30:55;7.90;99.90
39847;DHT22;25517;52.422;10.782;2024-03-02T04:33:21;7.90;99.90
39847;DHT22;25517;52.422;10.782;2024-03-02T04:35:46;7.90;99.90
39847;DHT22;25517;52.422;10.782;2024-03-02T04:38:12;7.90;99.90
39847;DHT22;25517;52.422;10.782;2024-03-02T04:40:38;7.90;99.90
39847;DHT22;25517;52.422;10.782;2024-03-02T04:43:03;7.90;99.90
39847;DHT22;25517;52.422;10.782;2024-03-02T04:45:29;7.90;99.90
39847;DHT22;25517;52.422;10.782;2024-03-02T04:47:54;7.90;99.90
39847;DHT22;25517;52.422;10.782;2024-03-02T04:50:20;7.90;99.90
39847;DHT22;25517;52.422;10.782;2024-03-02T04:52:45;7.90;99.90
39847;DHT22;25517;52.422;10.782;2024-03-02T04:55:11;7.90;99.90
39847;DHT22;25517;52.422;10.782;2024-03-02T04:57:42;7.80;99.90
39847;DHT22;25517;52.422;10.782;2024-03-02T05:00:09;7.80;99.90
39847;DHT22;25517;52.422;10.782;2024-03-02T05:02:35;7.80;99.90
39847;DHT22;25517;52.422;10.782;2024-03-02T05:05:00;7.80;99.90
39847;DHT22;25517;52.422;10.782;2024-03-02T05:07:26;7.70;99.90
39847;DHT22;25517;52.422;10.782;2024-03-02T05:09:51;7.70;99.90
39847;DHT22;25517;52.422;10.782;2024-03-02T05:12:17;7.80;99.90
39847;DHT22;25517;52.422;10.782;2024-03-02T05:14:48;7.70;99.90
39847;DHT22;25517;52.422;10.782;2024-03-02T05:17:14;7.70;99.90
39847;DHT22;25517;52.422;10.782;2024-03-02T05:19:39;7.70;99.90
39847;DHT22;25517;52.422;10.782;2024-03-02T05:22:05;7.70;99.90
39847;DHT22;25517;52.422;10.782;2024-03-02T05:24:31;7.70;99.90
39847;DHT22;25517;52.422;10.782;2024-03-02T05:26:56;7.60;99.90
39847;DHT22;25517;52.422;10.782;2024-03-02T05:29:22;7.60;99.90
39847;DHT22;25517;52.422;10.782;2024-03-02T05:31:48;7.60;99.90
39847;DHT22;25517;52.422;10.782;2024-03-02T05:34:14;7.60;99.90
39847;DHT22;25517;52.422;10.782;2024-03-02T05:36:39;7.60;99.90
39847;DHT22;25517;52.422;10.782;2024-03-02T05:39:05;7.60;99.90
39847;DHT22;25517;52.422;10.782;2024-03-02T05:41:34;7.50;99.90
39847;DHT22;25517;52.422;10.782;2024-03-02T05:44:00;7.50;99.90
39847;DHT22;25517;52.422;10.782;2024-03-02T05:46:25;7.50;99.90
39847;DHT22;25517;52.422;10.782;2024-03-02T05:48:51;7.50;99.90
39847;DHT22;25517;52.422;10.782;2024-03-02T05:51:16;7.50;99.90
39847;DHT22;25517;52.422;10.782;2024-03-02T05:53:42;7.50;99.90
39847;DHT22;25517;52.422;10.782;2024-03-02T05:56:08;7.50;99.90
39847;DHT22;25517;52.422;10.782;2024-03-02T05:58:34;7.50;99.90
39847;DHT22;25517;52.422;10.782;2024-03-02T06:01:23;7.50;99.90
39847;DHT22;25517;52.422;10.782;2024-03-02T06:03:56;7.50;99.90
39847;DHT22;25517;52.422;10.782;2024-03-02T06:06:25;7.50;99.90
39847;DHT22;25517;52.422;10.782;2024-03-02T06:08:51;7.50;99.90
39847;DHT22;25517;52.422;10.782;2024-03-02T06:11:18;7.50;99.90
39847;DHT22;25517;52.422;10.782;2024-03-02T06:13:44;7.50;99.90
39847;DHT22;25517;52.422;10.782;2024-03-02T06:16:10;7.50;99.90
39847;DHT22;25517;52.422;10.782;2024-03-02T06:18:35;7.50;99.90
39847;DHT22;25517;52.422;10.782;2024-03-02T06:21:01;7.50;99.90
39847;DHT22;25517;52.422;10.782;2024-03-02T06:23:27;7.50;99.90
39847;DHT22;25517;52.422;10.782;2024-03-02T06:25:52;7.50;99.90
39847;DHT22;25517;52.422;10.782;2024-03-02T06:28:18;7.50;99.90
39847;DHT22;25517;52.422;10.782;2024-03-02T06:30:44;7.60;99.90
39847;DHT22;25517;52.422;10.782;2024-03-02T06:33:10;7.50;99.90
39847;DHT22;25517;52.422;10.782;2024-03-02T06:35:36;7.60;99.90
39847;DHT22;25517;52.422;10.782;2024-03-02T06:38:02;7.60;99.90
39847;DHT22;25517;52.422;10.782;2024-03-02T06:40:27;7.60;99.90
39847;DHT22;25517;52.422;10.782;2024-03-02T06:42:53;7.60;99.90
39847;DHT22;25517;52.422;10.782;2024-03-02T06:45:19;7.60;99.90
39847;DHT22;25517;52.422;10.782;2024-03-02T06:47:44;7.60;99.90
39847;DHT22;25517;52.422;10.782;2024-03-02T06:50:10;7.60;99.90
39847;DHT22;25517;52.422;10.782;2024-03-02T06:52:36;7.70;99.90
39847;DHT22;25517;52.422;10.782;2024-03-02T06:55:02;7.70;99.90
39847;DHT22;25517;52.422;10.782;2024-03-02T06:57:27;7.80;99.90
39847;DHT22;25517;52.422;10.782;2024-03-02T06:59:53;7.80;99.90
39847;DHT22;25517;52.422;10.782;2024-03-02T07:02:22;7.80;99.90
39847;DHT22;25517;52.422;10.782;2024-03-02T07:04:48;7.90;99.90
39847;DHT22;25517;52.422;10.782;2024-03-02T07:07:14;7.80;99.90
39847;DHT22;25517;52.422;10.782;2024-03-02T07:09:39;7.90;99.90
39847;DHT22;25517;52.422;10.782;2024-03-02T07:12:05;7.90;99.90
39847;DHT22;25517;52.422;10.782;2024-03-02T07:14:30;7.90;99.90
39847;DHT22;25517;52.422;10.782;2024-03-02T07:17:14;7.90;99.90
39847;DHT22;25517;52.422;10.782;2024-03-02T07:19:40;8.00;99.90
39847;DHT22;25517;52.422;10.782;2024-03-02T07:22:06;8.00;99.90
39847;DHT22;25517;52.422;10.782;2024-03-02T07:24:42;8.00;99.90
39847;DHT22;25517;52.422;10.782;2024-03-02T07:27:11;8.00;99.90
39847;DHT22;25517;52.422;10.782;2024-03-02T07:29:37;8.10;99.90
39847;DHT22;25517;52.422;10.782;2024-03-02T07:32:03;8.10;99.90
39847;DHT22;25517;52.422;10.782;2024-03-02T07:34:29;8.10;99.90
39847;DHT22;25517;52.422;10.782;2024-03-02T07:36:55;8.20;99.90
39847;DHT22;25517;52.422;10.782;2024-03-02T07:39:21;8.20;99.90
39847;DHT22;25517;52.422;10.782;2024-03-02T07:41:47;8.30;99.90
39847;DHT22;25517;52.422;10.782;2024-03-02T07:44:12;8.30;99.90
39847;DHT22;25517;52.422;10.782;2024-03-02T07:46:42;8.40;99.90
39847;DHT22;25517;52.422;10.782;2024-03-02T07:49:08;8.40;99.90
39847;DHT22;25517;52.422;10.782;2024-03-02T07:51:34;8.50;99.90
39847;DHT22;25517;52.422;10.782;2024-03-02T07:53:59;8.50;99.90
39847;DHT22;25517;52.422;10.782;2024-03-02T07:56:25;8.60;99.90
39847;DHT22;25517;52.422;10.782;2024-03-02T07:58:50;8.70;99.90
39847;DHT22;25517;52.422;10.782;2024-03-02T08:01:16;8.80;99.90
39847;DHT22;25517;52.422;10.782;2024-03-02T08:03:43;8.90;99.90
39847;DHT22;25517;52.422;10.782;2024-03-02T08:06:16;9.00;99.90
39847;DHT22;25517;52.422;10.782;2024-03-02T08:08:42;9.00;99.90
39847;DHT22;25517;52.422;10.782;2024-03-02T08:11:08;9.10;99.90
39847;DHT22;25517;52.422;10.782;2024-03-02T08:13:33;9.20;99.90
39847;DHT22;25517;52.422;10.782;2024-03-02T08:15:59;9.30;99.90
39847;DHT22;25517;52.422;10.782;2024-03-02T08:18:25;9.40;99.90
39847;DHT22;25517;52.422;10.782;2024-03-02T08:20:50;9.50;99.90
39847;DHT22;25517;52.422;10.782;2024-03-02T08:23:17;9.60;99.90
39847;DHT22;25517;52.422;10.782;2024-03-02T08:25:43;9.70;99.90
39847;DHT22;25517;52.422;10.782;2024-03-02T08:28:08;9.80;99.90
39847;DHT22;25517;52.422;10.782;2024-03-02T08:30:34;9.90;99.90
39847;DHT22;25517;52.422;10.782;2024-03-02T08:32:59;10.00;99.90
39847;DHT22;25517;52.422;10.782;2024-03-02T08:35:25;10.00;99.90
39847;DHT22;25517;52.422;10.782;2024-03-02T08:37:51;10.00;99.90
39847;DHT22;25517;52.422;10.782;2024-03-02T08:40:17;10.20;99.90
39847;DHT22;25517;52.422;10.782;2024-03-02T08:42:43;10.30;99.90
39847;DHT22;25517;52.422;10.782;2024-03-02T08:45:09;10.40;99.90
39847;DHT22;25517;52.422;10.782;2024-03-02T08:47:35;10.50;99.90
39847;DHT22;25517;52.422;10.782;2024-03-02T08:50:00;10.60;99.90
39847;DHT22;25517;52.422;10.782;2024-03-02T08:52:26;10.70;99.90
39847;DHT22;25517;52.422;10.782;2024-03-02T08:54:51;10.90;99.90
39847;DHT22;25517;52.422;10.782;2024-03-02T08:57:17;11.00;99.90
39847;DHT22;25517;52.422;10.782;2024-03-02T08:59:43;11.10;99.90
39847;DHT22;25517;52.422;10.782;2024-03-02T09:02:09;11.10;99.90
39847;DHT22;25517;52.422;10.782;2024-03-02T09:04:35;11.30;99.90
39847;DHT22;25517;52.422;10.782;2024-03-02T09:07:01;11.50;99.90
39847;DHT22;25517;52.422;10.782;2024-03-02T09:09:26;11.80;99.90
39847;DHT22;25517;52.422;10.782;2024-03-02T09:11:52;12.20;99.90
39847;DHT22;25517;52.422;10.782;2024-03-02T09:14:20;13.20;99.90
39847;DHT22;25517;52.422;10.782;2024-03-02T09:16:46;14.80;99.90
39847;DHT22;25517;52.422;10.782;2024-03-02T09:19:12;15.80;99.90
39847;DHT22;25517;52.422;10.782;2024-03-02T09:21:37;17.70;99.00
39847;DHT22;25517;52.422;10.782;2024-03-02T09:24:03;18.90;95.80
39847;DHT22;25517;52.422;10.782;2024-03-02T09:26:29;20.40;91.00
39847;DHT22;25517;52.422;10.782;2024-03-02T09:28:54;20.00;88.20
39847;DHT22;25517;52.422;10.782;2024-03-02T09:31:20;20.00;88.20
39847;DHT22;25517;52.422;10.782;2024-03-02T09:33:45;20.30;88.00
39847;DHT22;25517;52.422;10.782;2024-03-02T09:36:21;20.90;85.40
39847;DHT22;25517;52.422;10.782;2024-03-02T09:38:47;21.50;85.20
39847;DHT22;25517;52.422;10.782;2024-03-02T09:41:14;21.70;83.70
39847;DHT22;25517;52.422;10.782;2024-03-02T09:43:40;22.20;80.10
39847;DHT22;25517;52.422;10.782;2024-03-02T09:46:10;22.00;81.90
39847;DHT22;25517;52.422;10.782;2024-03-02T09:48:36;21.90;81.10
39847;DHT22;25517;52.422;10.782;2024-03-02T09:51:02;21.20;82.20
39847;DHT22;25517;52.422;10.782;2024-03-02T09:53:33;20.20;83.00
39847;DHT22;25517;52.422;10.782;2024-03-02T09:56:00;19.40;85.20
39847;DHT22;25517;52.422;10.782;2024-03-02T09:58:25;19.20;86.00
39847;DHT22;25517;52.422;10.782;2024-03-02T10:00:51;19.20;86.10
39847;DHT22;25517;52.422;10.782;2024-03-02T10:03:18;19.40;86.20
39847;DHT22;25517;52.422;10.782;2024-03-02T10:05:44;19.80;85.20
39847;DHT22;25517;52.422;10.782;2024-03-02T10:08:09;19.90;83.40
39847;DHT22;25517;52.422;10.782;2024-03-02T10:10:41;20.00;83.10
39847;DHT22;25517;52.422;10.782;2024-03-02T10:13:12;19.90;84.80
39847;DHT22;25517;52.422;10.782;2024-03-02T10:15:39;20.30;82.50
39847;DHT22;25517;52.422;10.782;2024-03-02T10:18:11;20.40;81.30
39847;DHT22;25517;52.422;10.782;2024-03-02T10:20:37;20.00;82.50
39847;DHT22;25517;52.422;10.782;2024-03-02T10:23:14;20.20;83.10
39847;DHT22;25517;52.422;10.782;2024-03-02T10:25:40;20.30;82.50
39847;DHT22;25517;52.422;10.782;2024-03-02T10:28:06;20.40;83.00
39847;DHT22;25517;52.422;10.782;2024-03-02T10:30:32;20.40;81.30
39847;DHT22;25517;52.422;10.782;2024-03-02T10:32:58;20.20;82.00
39847;DHT22;25517;52.422;10.782;2024-03-02T10:35:23;19.90;84.30
39847;DHT22;25517;52.422;10.782;2024-03-02T10:37:49;19.50;85.10
39847;DHT22;25517;52.422;10.782;2024-03-02T10:40:15;19.20;85.60
39847;DHT22;25517;52.422;10.782;2024-03-02T10:42:45;18.80;86.20
39847;DHT22;25517;52.422;10.782;2024-03-02T10:45:12;18.40;87.90
39847;DHT22;25517;52.422;10.782;2024-03-02T10:47:38;17.60;89.50
39847;DHT22;25517;52.422;10.782;2024-03-02T10:50:07;17.20;90.70
39847;DHT22;25517;52.422;10.782;2024-03-02T10:52:36;17.00;90.90
39847;DHT22;25517;52.422;10.782;2024-03-02T10:55:02;16.50;91.30
39847;DHT22;25517;52.422;10.782;2024-03-02T10:57:36;16.40;91.30
39847;DHT22;25517;52.422;10.782;2024-03-02T11:00:06;16.10;91.40
39847;DHT22;25517;52.422;10.782;2024-03-02T11:02:35;15.60;92.20
39847;DHT22;25517;52.422;10.782;2024-03-02T11:05:05;15.20;92.80
39847;DHT22;25517;52.422;10.782;2024-03-02T11:07:33;15.10;92.00
39847;DHT22;25517;52.422;10.782;2024-03-02T11:10:01;14.90;92.10
39847;DHT22;25517;52.422;10.782;2024-03-02T11:12:38;14.90;92.40
39847;DHT22;25517;52.422;10.782;2024-03-02T11:15:10;14.90;92.60
39847;DHT22;25517;52.422;10.782;2024-03-02T11:17:39;14.90;92.90
39847;DHT22;25517;52.422;10.782;2024-03-02T11:20:06;14.80;91.50
39847;DHT22;25517;52.422;10.782;2024-03-02T11:22:35;14.70;90.80
39847;DHT22;25517;52.422;10.782;2024-03-02T11:25:01;14.70;91.10
39847;DHT22;25517;52.422;10.782;2024-03-02T11:33:06;15.60;91.50
39847;DHT22;25517;52.422;10.782;2024-03-02T11:35:42;15.90;89.70
39847;DHT22;25517;52.422;10.782;2024-03-02T11:38:14;16.50;89.80
39847;DHT22;25517;52.422;10.782;2024-03-02T11:40:40;17.10;83.70
39847;DHT22;25517;52.422;10.782;2024-03-02T11:43:06;18.00;83.50
39847;DHT22;25517;52.422;10.782;2024-03-02T11:45:33;18.60;80.50
39847;DHT22;25517;52.422;10.782;2024-03-02T11:47:59;18.70;79.10
39847;DHT22;25517;52.422;10.782;2024-03-02T11:50:35;18.60;77.80
39847;DHT22;25517;52.422;10.782;2024-03-02T11:53:03;17.90;77.80
39847;DHT22;25517;52.422;10.782;2024-03-02T11:55:31;17.50;80.50
39847;DHT22;25517;52.422;10.782;2024-03-02T11:58:01;17.30;79.80
39847;DHT22;25517;52.422;10.782;2024-03-02T12:00:27;17.40;76.40
39847;DHT22;25517;52.422;10.782;2024-03-02T12:03:08;17.40;76.10
39847;DHT22;25517;52.422;10.782;2024-03-02T12:05:34;17.40;77.40
39847;DHT22;25517;52.422;10.782;2024-03-02T12:08:02;17.60;77.00
39847;DHT22;25517;52.422;10.782;2024-03-02T12:10:28;17.70;78.30
39847;DHT22;25517;52.422;10.782;2024-03-02T12:15:33;17.30;79.40
39847;DHT22;25517;52.422;10.782;2024-03-02T12:18:00;17.10;80.10
39847;DHT22;25517;52.422;10.782;2024-03-02T12:20:28;16.90;82.80
39847;DHT22;25517;52.422;10.782;2024-03-02T12:22:55;16.90;82.20
39847;DHT22;25517;52.422;10.782;2024-03-02T12:25:22;16.90;83.20
39847;DHT22;25517;52.422;10.782;2024-03-02T12:27:50;16.80;85.00
39847;DHT22;25517;52.422;10.782;2024-03-02T12:30:19;16.60;84.30
39847;DHT22;25517;52.422;10.782;2024-03-02T12:32:45;16.50;85.70
39847;DHT22;25517;52.422;10.782;2024-03-02T12:35:11;16.20;84.00
39847;DHT22;25517;52.422;10.782;2024-03-02T12:37:50;16.10;83.10
39847;DHT22;25517;52.422;10.782;2024-03-02T12:40:17;15.90;84.80
39847;DHT22;25517;52.422;10.782;2024-03-02T12:42:47;15.80;84.40
39847;DHT22;25517;52.422;10.782;2024-03-02T12:45:15;15.60;84.40
39847;DHT22;25517;52.422;10.782;2024-03-02T12:47:42;15.70;84.70
39847;DHT22;25517;52.422;10.782;2024-03-02T12:50:09;15.70;85.00
39847;DHT22;25517;52.422;10.782;2024-03-02T12:52:34;15.70;83.90
39847;DHT22;25517;52.422;10.782;2024-03-02T12:55:01;15.50;83.80
39847;DHT22;25517;52.422;10.782;2024-03-02T12:57:29;15.60;86.30
39847;DHT22;25517;52.422;10.782;2024-03-02T13:00:05;15.60;84.60
39847;DHT22;25517;52.422;10.782;2024-03-02T13:02:35;15.50;85.30
39847;DHT22;25517;52.422;10.782;2024-03-02T13:05:02;15.60;86.30
39847;DHT22;25517;52.422;10.782;2024-03-02T13:07:28;15.70;86.30
39847;DHT22;25517;52.422;10.782;2024-03-02T13:09:55;15.60;85.90
39847;DHT22;25517;52.422;10.782;2024-03-02T13:12:22;15.70;85.00
39847;DHT22;25517;52.422;10.782;2024-03-02T13:14:49;15.60;85.70
39847;DHT22;25517;52.422;10.782;2024-03-02T13:17:18;15.70;85.50
39847;DHT22;25517;52.422;10.782;2024-03-02T13:20:00;15.90;85.80
39847;DHT22;25517;52.422;10.782;2024-03-02T13:22:26;15.60;83.50
39847;DHT22;25517;52.422;10.782;2024-03-02T13:24:52;15.80;84.70
39847;DHT22;25517;52.422;10.782;2024-03-02T13:27:20;16.00;83.80
39847;DHT22;25517;52.422;10.782;2024-03-02T13:29:46;15.90;84.30
39847;DHT22;25517;52.422;10.782;2024-03-02T13:32:13;16.00;84.80
39847;DHT22;25517;52.422;10.782;2024-03-02T13:34:39;16.20;85.00
39847;DHT22;25517;52.422;10.782;2024-03-02T13:37:05;16.20;85.80
39847;DHT22;25517;52.422;10.782;2024-03-02T13:39:31;16.30;86.70
39847;DHT22;25517;52.422;10.782;2024-03-02T13:41:58;16.40;86.00
39847;DHT22;25517;52.422;10.782;2024-03-02T13:44:30;16.60;86.50
39847;DHT22;25517;52.422;10.782;2024-03-02T13:46:56;16.80;85.70
39847;DHT22;25517;52.422;10.782;2024-03-02T13:49:21;17.00;86.70
39847;DHT22;25517;52.422;10.782;2024-03-02T13:51:48;17.30;88.20
39847;DHT22;25517;52.422;10.782;2024-03-02T13:54:14;17.60;87.90
39847;DHT22;25517;52.422;10.782;2024-03-02T13:56:39;17.80;86.20
39847;DHT22;25517;52.422;10.782;2024-03-02T13:59:07;17.80;85.90
39847;DHT22;25517;52.422;10.782;2024-03-02T14:01:33;17.90;88.00
39847;DHT22;25517;52.422;10.782;2024-03-02T14:03:59;17.90;86.70
39847;DHT22;25517;52.422;10.782;2024-03-02T14:06:24;18.00;86.40
39847;DHT22;25517;52.422;10.782;2024-03-02T14:08:52;18.00;85.00
39847;DHT22;25517;52.422;10.782;2024-03-02T14:11:18;17.40;84.50
39847;DHT22;25517;52.422;10.782;2024-03-02T14:13:44;17.30;85.60
39847;DHT22;25517;52.422;10.782;2024-03-02T14:16:15;17.10;83.20
39847;DHT22;25517;52.422;10.782;2024-03-02T14:18:41;16.60;82.30
39847;DHT22;25517;52.422;10.782;2024-03-02T14:21:07;16.70;84.20
39847;DHT22;25517;52.422;10.782;2024-03-02T14:23:32;16.60;84.00
39847;DHT22;25517;52.422;10.782;2024-03-02T14:25:58;16.60;82.30
39847;DHT22;25517;52.422;10.782;2024-03-02T14:28:24;16.50;84.00
39847;DHT22;25517;52.422;10.782;2024-03-02T14:30:50;16.60;84.70
39847;DHT22;25517;52.422;10.782;2024-03-02T14:33:16;16.40;85.30
39847;DHT22;25517;52.422;10.782;2024-03-02T14:35:42;16.50;87.80
39847;DHT22;25517;52.422;10.782;2024-03-02T14:38:07;16.60;87.70
39847;DHT22;25517;52.422;10.782;2024-03-02T14:40:33;16.60;88.10
39847;DHT22;25517;52.422;10.782;2024-03-02T14:42:59;16.80;89.30
39847;DHT22;25517;52.422;10.782;2024-03-02T14:45:24;16.90;88.90
39847;DHT22;25517;52.422;10.782;2024-03-02T14:47:50;16.90;88.80
39847;DHT22;25517;52.422;10.782;2024-03-02T14:50:17;17.00;88.90
39847;DHT22;25517;52.422;10.782;2024-03-02T14:52:44;17.20;89.20
39847;DHT22;25517;52.422;10.782;2024-03-02T14:55:10;17.40;90.60
39847;DHT22;25517;52.422;10.782;2024-03-02T14:57:35;17.60;90.50
39847;DHT22;25517;52.422;10.782;2024-03-02T15:00:01;17.80;89.60
39847;DHT22;25517;52.422;10.782;2024-03-02T15:02:27;17.90;90.50
39847;DHT22;25517;52.422;10.782;2024-03-02T15:04:54;17.80;90.70
39847;DHT22;25517;52.422;10.782;2024-03-02T15:07:20;17.90;91.10
39847;DHT22;25517;52.422;10.782;2024-03-02T15:09:45;17.90;90.90
39847;DHT22;25517;52.422;10.782;2024-03-02T15:12:11;17.90;91.50
39847;DHT22;25517;52.422;10.782;2024-03-02T15:14:38;17.80;91.10
39847;DHT22;25517;52.422;10.782;2024-03-02T15:17:13;17.50;92.30
39847;DHT22;25517;52.422;10.782;2024-03-02T15:19:43;17.50;92.30
39847;DHT22;25517;52.422;10.782;2024-03-02T15:22:09;17.40;92.70
39847;DHT22;25517;52.422;10.782;2024-03-02T15:24:35;17.30;92.50
39847;DHT22;25517;52.422;10.782;2024-03-02T15:27:01;17.10;92.70
39847;DHT22;25517;52.422;10.782;2024-03-02T15:29:31;16.80;93.50
39847;DHT22;25517;52.422;10.782;2024-03-02T15:31:57;16.70;93.60